sensor_id;sensor_type;location;lat;lon;timestamp;temperature;humidity
54684;DHT22;40582;53.100;6.686;2023-08-17T00:00:11;17.00;99.90
54684;DHT22;40582;53.100;6.686;2023-08-17T00:02:39;17.10;99.90
54684;DHT22;40582;53.100;6.686;2023-08-17T00:05:05;17.10;99.90
54684;DHT22;40582;53.100;6.686;2023-08-17T00:07:35;17.00;99.90
54684;DHT22;40582;53.100;6.686;2023-08-17T00:10:01;17.00;99.90
54684;DHT22;40582;53.100;6.686;2023-08-17T00:12:28;17.00;99.90
54684;DHT22;40582;53.100;6.686;2023-08-17T00:14:54;16.90;99.90
54684;DHT22;40582;53.100;6.686;2023-08-17T00:17:21;16.90;99.90
54684;DHT22;40582;53.100;6.686;2023-08-17T00:19:47;16.80;99.90
54684;DHT22;40582;53.100;6.686;2023-08-17T00:22:13;16.90;99.90
54684;DHT22;40582;53.100;6.686;2023-08-17T00:24:39;16.90;99.90
54684;DHT22;40582;53.100;6.686;2023-08-17T00:27:07;17.00;99.90
54684;DHT22;40582;53.100;6.686;2023-08-17T00:29:33;17.10;99.90
54684;DHT22;40582;53.100;6.686;2023-08-17T00:32:00;17.10;99.90
54684;DHT22;40582;53.100;6.686;2023-08-17T00:34:27;17.20;99.90
54684;DHT22;40582;53.100;6.686;2023-08-17T00:36:52;17.20;99.90
54684;DHT22;40582;53.100;6.686;2023-08-17T00:39:18;17.10;99.90
54684;DHT22;40582;53.100;6.686;2023-08-17T00:41:45;17.10;99.90
54684;DHT22;40582;53.100;6.686;2023-08-17T00:44:11;17.10;99.90
54684;DHT22;40582;53.100;6.686;2023-08-17T00:46:38;17.00;99.90
54684;DHT22;40582;53.100;6.686;2023-08-17T00:49:04;17.00;99.90
54684;DHT22;40582;53.100;6.686;2023-08-17T00:51:30;17.00;99.90
54684;DHT22;40582;53.100;6.686;2023-08-17T00:53:58;16.90;99.90
54684;DHT22;40582;53.100;6.686;2023-08-17T00:56:26;16.90;99.90
54684;DHT22;40582;53.100;6.686;2023-08-17T00:58:52;16.90;99.90
54684;DHT22;40582;53.100;6.686;2023-08-17T01:01:19;16.90;99.90
54684;DHT22;40582;53.100;6.686;2023-08-17T01:03:45;16.90;99.90
54684;DHT22;40582;53.100;6.686;2023-08-17T01:06:11;16.90;99.90
54684;DHT22;40582;53.100;6.686;2023-08-17T01:08:37;16.80;99.90
54684;DHT22;40582;53.100;6.686;2023-08-17T01:13:44;16.80;99.90
54684;DHT22;40582;53.100;6.686;2023-08-17T01:16:15;16.60;99.90
54684;DHT22;40582;53.100;6.686;2023-08-17T01:18:46;16.60;99.90
54684;DHT22;40582;53.100;6.686;2023-08-17T01:21:16;16.50;99.90
54684;DHT22;40582;53.100;6.686;2023-08-17T01:23:45;16.50;99.90
54684;DHT22;40582;53.100;6.686;2023-08-17T01:26:11;16.40;99.90
54684;DHT22;40582;53.100;6.686;2023-08-17T01:28:42;16.30;99.90
54684;DHT22;40582;53.100;6.686;2023-08-17T01:31:31;16.30;99.90
54684;DHT22;40582;53.100;6.686;2023-08-17T01:34:10;16.40;99.90
54684;DHT22;40582;53.100;6.686;2023-08-17T01:36:43;16.40;99.90
54684;DHT22;40582;53.100;6.686;2023-08-17T01:39:13;16.40;99.90
54684;DHT22;40582;53.100;6.686;2023-08-17T01:41:41;16.40;99.90
54684;DHT22;40582;53.100;6.686;2023-08-17T01:44:07;16.40;99.90
54684;DHT22;40582;53.100;6.686;2023-08-17T01:46:33;16.30;99.90
54684;DHT22;40582;53.100;6.686;2023-08-17T01:48:59;16.20;99.90
54684;DHT22;40582;53.100;6.686;2023-08-17T01:51:25;16.20;99.90
54684;DHT22;40582;53.100;6.686;2023-08-17T01:53:50;16.10;99.90
54684;DHT22;40582;53.100;6.686;2023-08-17T01:56:16;16.10;99.90
54684;DHT22;40582;53.100;6.686;2023-08-17T01:58:42;16.00;99.90
54684;DHT22;40582;53.100;6.686;2023-08-17T02:01:08;16.00;99.90
54684;DHT22;40582;53.100;6.686;2023-08-17T02:03:34;15.90;99.90
54684;DHT22;40582;53.100;6.686;2023-08-17T02:05:59;15.90;99.90
54684;DHT22;40582;53.100;6.686;2023-08-17T02:08:25;15.80;99.90
54684;DHT22;40582;53.100;6.686;2023-08-17T02:10:51;15.80;99.90
54684;DHT22;40582;53.100;6.686;2023-08-17T02:13:18;15.80;99.90
54684;DHT22;40582;53.100;6.686;2023-08-17T02:15:44;15.90;99.90
54684;DHT22;40582;53.100;6.686;2023-08-17T02:18:10;15.90;99.90
54684;DHT22;40582;53.100;6.686;2023-08-17T02:20:35;15.90;99.90
54684;DHT22;40582;53.100;6.686;2023-08-17T02:23:01;16.00;99.90
54684;DHT22;40582;53.100;6.686;2023-08-17T02:25:27;16.00;99.90
54684;DHT22;40582;53.100;6.686;2023-08-17T02:27:59;16.00;99.90
54684;DHT22;40582;53.100;6.686;2023-08-17T02:30:25;15.90;99.90
54684;DHT22;40582;53.100;6.686;2023-08-17T02:32:51;16.00;99.90
54684;DHT22;40582;53.100;6.686;2023-08-17T02:35:17;16.00;99.90
54684;DHT22;40582;53.100;6.686;2023-08-17T02:37:42;15.90;99.90
54684;DHT22;40582;53.100;6.686;2023-08-17T02:40:08;15.90;99.90
54684;DHT22;40582;53.100;6.686;2023-08-17T02:42:34;15.80;99.90
54684;DHT22;40582;53.100;6.686;2023-08-17T02:45:00;15.90;99.90
54684;DHT22;40582;53.100;6.686;2023-08-17T02:47:26;15.90;99.90
54684;DHT22;40582;53.100;6.686;2023-08-17T02:49:51;15.90;99.90
54684;DHT22;40582;53.100;6.686;2023-08-17T02:52:17;15.80;99.90
54684;DHT22;40582;53.100;6.686;2023-08-17T02:54:43;15.80;99.90
54684;DHT22;40582;53.100;6.686;2023-08-17T02:57:08;15.80;99.90
54684;DHT22;40582;53.100;6.686;2023-08-17T02:59:34;15.80;99.90
54684;DHT22;40582;53.100;6.686;2023-08-17T03:01:59;15.80;99.90
54684;DHT22;40582;53.100;6.686;2023-08-17T03:04:25;15.80;99.90
54684;DHT22;40582;53.100;6.686;2023-08-17T03:06:51;15.80;99.90
54684;DHT22;40582;53.100;6.686;2023-08-17T03:09:16;15.80;99.90
54684;DHT22;40582;53.100;6.686;2023-08-17T03:11:42;15.80;99.90
54684;DHT22;40582;53.100;6.686;2023-08-17T03:14:08;15.80;99.90
54684;DHT22;40582;53.100;6.686;2023-08-17T03:16:33;15.80;99.90
54684;DHT22;40582;53.100;6.686;2023-08-17T03:18:59;15.80;99.90
54684;DHT22;40582;53.100;6.686;2023-08-17T03:21:25;15.80;99.90
54684;DHT22;40582;53.100;6.686;2023-08-17T03:23:50;15.80;99.90
54684;DHT22;40582;53.100;6.686;2023-08-17T03:26:16;15.80;99.90
54684;DHT22;40582;53.100;6.686;2023-08-17T03:28:42;15.80;99.90
54684;DHT22;40582;53.100;6.686;2023-08-17T03:31:08;15.80;99.90
54684;DHT22;40582;53.100;6.686;2023-08-17T03:33:35;15.70;99.90
54684;DHT22;40582;53.100;6.686;2023-08-17T03:36:01;15.70;99.90
54684;DHT22;40582;53.100;6.686;2023-08-17T03:38:27;15.70;99.90
54684;DHT22;40582;53.100;6.686;2023-08-17T03:40:52;15.60;99.90
54684;DHT22;40582;53.100;6.686;2023-08-17T03:43:18;15.60;99.90
54684;DHT22;40582;53.100;6.686;2023-08-17T03:45:44;15.50;99.90
54684;DHT22;40582;53.100;6.686;2023-08-17T03:48:09;15.40;99.90
54684;DHT22;40582;53.100;6.686;2023-08-17T03:50:35;15.40;99.90
54684;DHT22;40582;53.100;6.686;2023-08-17T03:53:01;15.40;99.90
54684;DHT22;40582;53.100;6.686;2023-08-17T03:55:27;15.30;99.90
54684;DHT22;40582;53.100;6.686;2023-08-17T03:57:52;15.30;99.90
54684;DHT22;40582;53.100;6.686;2023-08-17T04:00:18;15.30;99.90
54684;DHT22;40582;53.100;6.686;2023-08-17T04:02:44;15.30;99.90
54684;DHT22;40582;53.100;6.686;2023-08-17T04:05:09;15.30;99.90
54684;DHT22;40582;53.100;6.686;2023-08-17T04:07:36;15.20;99.90
54684;DHT22;40582;53.100;6.686;2023-08-17T04:10:03;15.30;99.90
54684;DHT22;40582;53.100;6.686;2023-08-17T04:12:29;15.20;99.90
54684;DHT22;40582;53.100;6.686;2023-08-17T04:14:54;15.20;99.90
54684;DHT22;40582;53.100;6.686;2023-08-17T04:17:20;15.20;99.90
54684;DHT22;40582;53.100;6.686;2023-08-17T04:19:47;15.20;99.90
54684;DHT22;40582;53.100;6.686;2023-08-17T04:22:12;15.20;99.90
54684;DHT22;40582;53.100;6.686;2023-08-17T04:24:38;15.20;99.90
54684;DHT22;40582;53.100;6.686;2023-08-17T04:27:04;15.20;99.90
54684;DHT22;40582;53.100;6.686;2023-08-17T04:29:31;15.20;99.90
54684;DHT22;40582;53.100;6.686;2023-08-17T04:31:58;15.20;99.90
54684;DHT22;40582;53.100;6.686;2023-08-17T04:34:24;15.20;99.90
54684;DHT22;40582;53.100;6.686;2023-08-17T04:36:50;15.20;99.90
54684;DHT22;40582;53.100;6.686;2023-08-17T04:39:16;15.20;99.90
54684;DHT22;40582;53.100;6.686;2023-08-17T04:41:41;15.20;99.90
54684;DHT22;40582;53.100;6.686;2023-08-17T04:44:07;15.20;99.90
54684;DHT22;40582;53.100;6.686;2023-08-17T04:46:33;15.20;99.90
54684;DHT22;40582;53.100;6.686;2023-08-17T04:48:58;15.20;99.90
54684;DHT22;40582;53.100;6.686;2023-08-17T04:51:24;15.20;99.90
54684;DHT22;40582;53.100;6.686;2023-08-17T04:53:50;15.20;99.90
54684;DHT22;40582;53.100;6.686;2023-08-17T04:56:15;15.20;99.90
54684;DHT22;40582;53.100;6.686;2023-08-17T04:58:41;15.20;99.90
54684;DHT22;40582;53.100;6.686;2023-08-17T05:01:06;15.20;99.90
54684;DHT22;40582;53.100;6.686;2023-08-17T05:03:32;15.20;99.90
54684;DHT22;40582;53.100;6.686;2023-08-17T05:05:58;15.20;99.90
54684;DHT22;40582;53.100;6.686;2023-08-17T05:08:24;15.30;99.90
54684;DHT22;40582;53.100;6.686;2023-08-17T05:10:50;15.30;99.90
54684;DHT22;40582;53.100;6.686;2023-08-17T05:13:16;15.30;99.90
54684;DHT22;40582;53.100;6.686;2023-08-17T05:15:41;15.40;99.90
54684;DHT22;40582;53.100;6.686;2023-08-17T05:18:07;15.50;99.90
54684;DHT22;40582;53.100;6.686;2023-08-17T05:20:33;15.50;99.90
54684;DHT22;40582;53.100;6.686;2023-08-17T05:22:59;15.60;99.90
54684;DHT22;40582;53.100;6.686;2023-08-17T05:25:24;15.60;99.90
54684;DHT22;40582;53.100;6.686;2023-08-17T05:27:52;15.70;99.90
54684;DHT22;40582;53.100;6.686;2023-08-17T05:30:17;15.80;99.90
54684;DHT22;40582;53.100;6.686;2023-08-17T05:32:43;15.90;99.90
54684;DHT22;40582;53.100;6.686;2023-08-17T05:35:09;16.00;99.90
54684;DHT22;40582;53.100;6.686;2023-08-17T05:37:34;16.10;99.90
54684;DHT22;40582;53.100;6.686;2023-08-17T05:40:00;16.10;99.90
54684;DHT22;40582;53.100;6.686;2023-08-17T05:42:26;16.20;99.90
54684;DHT22;40582;53.100;6.686;2023-08-17T05:44:51;16.30;99.90
54684;DHT22;40582;53.100;6.686;2023-08-17T05:47:17;16.40;99.90
54684;DHT22;40582;53.100;6.686;2023-08-17T05:49:45;16.40;99.90
54684;DHT22;40582;53.100;6.686;2023-08-17T05:52:11;16.50;99.90
54684;DHT22;40582;53.100;6.686;2023-08-17T05:54:37;16.50;99.90
54684;DHT22;40582;53.100;6.686;2023-08-17T05:57:03;16.60;99.90
54684;DHT22;40582;53.100;6.686;2023-08-17T05:59:29;16.80;99.90
54684;DHT22;40582;53.100;6.686;2023-08-17T06:01:54;16.80;99.90
54684;DHT22;40582;53.100;6.686;2023-08-17T06:04:20;16.80;99.90
54684;DHT22;40582;53.100;6.686;2023-08-17T06:06:46;16.80;99.90
54684;DHT22;40582;53.100;6.686;2023-08-17T06:09:12;16.80;99.90
54684;DHT22;40582;53.100;6.686;2023-08-17T06:11:38;16.80;99.90
54684;DHT22;40582;53.100;6.686;2023-08-17T06:14:04;16.90;99.90
54684;DHT22;40582;53.100;6.686;2023-08-17T06:16:30;16.90;99.90
54684;DHT22;40582;53.100;6.686;2023-08-17T06:18:55;17.00;99.90
54684;DHT22;40582;53.100;6.686;2023-08-17T06:21:21;17.00;99.90
54684;DHT22;40582;53.100;6.686;2023-08-17T06:23:47;17.00;99.90
54684;DHT22;40582;53.100;6.686;2023-08-17T06:26:12;17.00;99.90
54684;DHT22;40582;53.100;6.686;2023-08-17T06:28:38;17.10;99.90
54684;DHT22;40582;53.100;6.686;2023-08-17T06:31:04;17.10;99.90
54684;DHT22;40582;53.100;6.686;2023-08-17T06:33:30;17.20;99.90
54684;DHT22;40582;53.100;6.686;2023-08-17T06:35:55;17.20;99.90
54684;DHT22;40582;53.100;6.686;2023-08-17T06:38:21;17.20;99.90
54684;DHT22;40582;53.100;6.686;2023-08-17T06:40:47;17.20;99.90
54684;DHT22;40582;53.100;6.686;2023-08-17T06:43:13;17.20;99.90
54684;DHT22;40582;53.100;6.686;2023-08-17T06:45:39;17.40;99.90
54684;DHT22;40582;53.100;6.686;2023-08-17T06:48:05;17.50;99.90
54684;DHT22;40582;53.100;6.686;2023-08-17T06:50:31;17.70;99.90
54684;DHT22;40582;53.100;6.686;2023-08-17T06:52:56;17.80;99.90
54684;DHT22;40582;53.100;6.686;2023-08-17T06:55:22;17.90;99.90
54684;DHT22;40582;53.100;6.686;2023-08-17T06:57:48;17.90;99.90
54684;DHT22;40582;53.100;6.686;2023-08-17T07:00:18;17.90;99.90
54684;DHT22;40582;53.100;6.686;2023-08-17T07:02:46;17.90;99.90
54684;DHT22;40582;53.100;6.686;2023-08-17T07:05:14;17.80;99.90
54684;DHT22;40582;53.100;6.686;2023-08-17T07:07:40;17.70;99.90
54684;DHT22;40582;53.100;6.686;2023-08-17T07:10:06;17.70;99.90
54684;DHT22;40582;53.100;6.686;2023-08-17T07:12:33;17.70;99.90
54684;DHT22;40582;53.100;6.686;2023-08-17T07:14:58;17.70;99.90
54684;DHT22;40582;53.100;6.686;2023-08-17T07:17:24;17.70;99.90
54684;DHT22;40582;53.100;6.686;2023-08-17T07:19:50;17.80;99.90
54684;DHT22;40582;53.100;6.686;2023-08-17T07:22:15;18.00;99.90
54684;DHT22;40582;53.100;6.686;2023-08-17T07:24:44;18.10;99.90
54684;DHT22;40582;53.100;6.686;2023-08-17T07:27:10;18.20;99.90
54684;DHT22;40582;53.100;6.686;2023-08-17T07:29:36;18.20;99.90
54684;DHT22;40582;53.100;6.686;2023-08-17T07:32:02;18.20;99.90
54684;DHT22;40582;53.100;6.686;2023-08-17T07:34:28;18.20;99.90
54684;DHT22;40582;53.100;6.686;2023-08-17T07:36:55;18.30;99.90
54684;DHT22;40582;53.100;6.686;2023-08-17T07:39:21;18.40;99.90
54684;DHT22;40582;53.100;6.686;2023-08-17T07:41:47;18.40;99.90
54684;DHT22;40582;53.100;6.686;2023-08-17T07:44:12;18.40;99.90
54684;DHT22;40582;53.100;6.686;2023-08-17T07:46:38;18.40;99.90
54684;DHT22;40582;53.100;6.686;2023-08-17T07:49:04;18.40;99.90
54684;DHT22;40582;53.100;6.686;2023-08-17T07:51:30;18.30;99.90
54684;DHT22;40582;53.100;6.686;2023-08-17T07:53:57;18.20;99.90
54684;DHT22;40582;53.100;6.686;2023-08-17T07:56:23;18.20;99.90
54684;DHT22;40582;53.100;6.686;2023-08-17T07:58:49;18.20;99.90
54684;DHT22;40582;53.100;6.686;2023-08-17T08:01:15;18.20;99.90
54684;DHT22;40582;53.100;6.686;2023-08-17T08:03:40;18.30;99.90
54684;DHT22;40582;53.100;6.686;2023-08-17T08:06:06;18.40;99.90
54684;DHT22;40582;53.100;6.686;2023-08-17T08:08:32;18.50;99.90
54684;DHT22;40582;53.100;6.686;2023-08-17T08:10:58;18.60;99.90
54684;DHT22;40582;53.100;6.686;2023-08-17T08:13:24;18.60;99.90
54684;DHT22;40582;53.100;6.686;2023-08-17T08:15:49;18.50;99.90
54684;DHT22;40582;53.100;6.686;2023-08-17T08:18:15;18.50;99.90
54684;DHT22;40582;53.100;6.686;2023-08-17T08:20:41;18.40;99.90
54684;DHT22;40582;53.100;6.686;2023-08-17T08:23:06;18.40;99.90
54684;DHT22;40582;53.100;6.686;2023-08-17T08:25:32;18.40;99.90
54684;DHT22;40582;53.100;6.686;2023-08-17T08:27:58;18.50;99.90
54684;DHT22;40582;53.100;6.686;2023-08-17T08:30:23;18.70;99.90
54684;DHT22;40582;53.100;6.686;2023-08-17T08:32:50;18.90;99.90
54684;DHT22;40582;53.100;6.686;2023-08-17T08:35:15;19.20;99.90
54684;DHT22;40582;53.100;6.686;2023-08-17T08:37:41;19.40;99.90
54684;DHT22;40582;53.100;6.686;2023-08-17T08:40:11;19.60;99.90
54684;DHT22;40582;53.100;6.686;2023-08-17T08:42:38;19.90;99.90
54684;DHT22;40582;53.100;6.686;2023-08-17T08:45:04;20.10;99.90
54684;DHT22;40582;53.100;6.686;2023-08-17T08:47:31;20.40;99.90
54684;DHT22;40582;53.100;6.686;2023-08-17T08:50:00;20.50;99.90
54684;DHT22;40582;53.100;6.686;2023-08-17T08:52:33;20.70;99.90
54684;DHT22;40582;53.100;6.686;2023-08-17T08:55:17;20.80;99.90
54684;DHT22;40582;53.100;6.686;2023-08-17T08:57:43;21.00;99.90
54684;DHT22;40582;53.100;6.686;2023-08-17T09:00:11;21.20;99.90
54684;DHT22;40582;53.100;6.686;2023-08-17T09:02:37;21.10;99.90
54684;DHT22;40582;53.100;6.686;2023-08-17T09:05:05;20.80;99.90
54684;DHT22;40582;53.100;6.686;2023-08-17T09:07:32;20.60;99.90
54684;DHT22;40582;53.100;6.686;2023-08-17T09:09:59;20.60;99.90
54684;DHT22;40582;53.100;6.686;2023-08-17T09:12:25;20.70;99.90
54684;DHT22;40582;53.100;6.686;2023-08-17T09:14:50;20.80;99.90
54684;DHT22;40582;53.100;6.686;2023-08-17T09:17:26;21.10;99.90
54684;DHT22;40582;53.100;6.686;2023-08-17T09:19:52;21.20;99.90
54684;DHT22;40582;53.100;6.686;2023-08-17T09:22:24;21.40;99.90
54684;DHT22;40582;53.100;6.686;2023-08-17T09:24:50;21.80;99.90
54684;DHT22;40582;53.100;6.686;2023-08-17T09:27:16;21.90;99.90
54684;DHT22;40582;53.100;6.686;2023-08-17T09:29:43;21.80;99.90
54684;DHT22;40582;53.100;6.686;2023-08-17T09:32:11;21.80;99.90
54684;DHT22;40582;53.100;6.686;2023-08-17T09:34:42;21.70;99.90
54684;DHT22;40582;53.100;6.686;2023-08-17T09:37:08;21.60;99.90
54684;DHT22;40582;53.100;6.686;2023-08-17T09:39:34;21.40;99.90
54684;DHT22;40582;53.100;6.686;2023-08-17T09:42:00;21.20;99.90
54684;DHT22;40582;53.100;6.686;2023-08-17T09:44:27;21.20;99.90
54684;DHT22;40582;53.100;6.686;2023-08-17T09:46:56;21.20;99.90
54684;DHT22;40582;53.100;6.686;2023-08-17T09:49:25;21.20;99.90
54684;DHT22;40582;53.100;6.686;2023-08-17T09:51:51;21.20;99.90
54684;DHT22;40582;53.100;6.686;2023-08-17T09:54:22;21.00;99.90
54684;DHT22;40582;53.100;6.686;2023-08-17T09:56:50;20.90;99.90
54684;DHT22;40582;53.100;6.686;2023-08-17T09:59:16;20.90;99.90
54684;DHT22;40582;53.100;6.686;2023-08-17T10:01:43;20.90;99.90
54684;DHT22;40582;53.100;6.686;2023-08-17T10:04:09;20.80;99.90
54684;DHT22;40582;53.100;6.686;2023-08-17T10:06:39;20.70;99.90
54684;DHT22;40582;53.100;6.686;2023-08-17T10:09:09;20.70;99.90
54684;DHT22;40582;53.100;6.686;2023-08-17T10:11:38;20.80;99.90
54684;DHT22;40582;53.100;6.686;2023-08-17T10:14:11;20.90;99.90
54684;DHT22;40582;53.100;6.686;2023-08-17T10:16:45;21.10;99.90
54684;DHT22;40582;53.100;6.686;2023-08-17T10:19:33;21.40;99.90
54684;DHT22;40582;53.100;6.686;2023-08-17T10:22:12;21.50;99.90
54684;DHT22;40582;53.100;6.686;2023-08-17T10:24:40;21.80;99.90
54684;DHT22;40582;53.100;6.686;2023-08-17T10:27:07;22.40;99.90
54684;DHT22;40582;53.100;6.686;2023-08-17T10:29:36;22.70;99.90
54684;DHT22;40582;53.100;6.686;2023-08-17T10:32:05;23.00;99.90
54684;DHT22;40582;53.100;6.686;2023-08-17T10:34:33;23.00;99.90
54684;DHT22;40582;53.100;6.686;2023-08-17T10:37:00;23.30;99.90
54684;DHT22;40582;53.100;6.686;2023-08-17T10:39:27;23.30;99.90
54684;DHT22;40582;53.100;6.686;2023-08-17T10:41:53;23.10;99.90
54684;DHT22;40582;53.100;6.686;2023-08-17T10:50:06;22.80;99.90
54684;DHT22;40582;53.100;6.686;2023-08-17T10:52:48;22.80;99.90
54684;DHT22;40582;53.100;6.686;2023-08-17T10:55:14;22.90;99.90
54684;DHT22;40582;53.100;6.686;2023-08-17T10:57:43;22.90;99.90
54684;DHT22;40582;53.100;6.686;2023-08-17T11:00:25;22.70;99.90
54684;DHT22;40582;53.100;6.686;2023-08-17T11:02:55;22.40;99.90
54684;DHT22;40582;53.100;6.686;2023-08-17T11:08:10;22.10;99.90
54684;DHT22;40582;53.100;6.686;2023-08-17T11:10:36;21.90;99.90
54684;DHT22;40582;53.100;6.686;2023-08-17T11:13:04;22.00;99.90
54684;DHT22;40582;53.100;6.686;2023-08-17T11:15:42;22.00;99.90
54684;DHT22;40582;53.100;6.686;2023-08-17T11:18:09;22.00;99.90
54684;DHT22;40582;53.100;6.686;2023-08-17T11:20:35;21.70;99.90
54684;DHT22;40582;53.100;6.686;2023-08-17T11:23:02;21.60;99.90
54684;DHT22;40582;53.100;6.686;2023-08-17T11:25:28;21.70;99.90
54684;DHT22;40582;53.100;6.686;2023-08-17T11:27:56;21.70;99.90
54684;DHT22;40582;53.100;6.686;2023-08-17T11:30:22;21.80;99.90
54684;DHT22;40582;53.100;6.686;2023-08-17T11:32:52;22.10;99.90
54684;DHT22;40582;53.100;6.686;2023-08-17T11:35:19;22.20;99.90
54684;DHT22;40582;53.100;6.686;2023-08-17T11:37:45;22.30;99.90
54684;DHT22;40582;53.100;6.686;2023-08-17T11:40:11;22.40;99.90
54684;DHT22;40582;53.100;6.686;2023-08-17T11:42:37;22.50;99.90
54684;DHT22;40582;53.100;6.686;2023-08-17T11:45:04;22.70;99.90
54684;DHT22;40582;53.100;6.686;2023-08-17T11:47:30;23.00;99.90
54684;DHT22;40582;53.100;6.686;2023-08-17T11:50:01;23.00;99.90
54684;DHT22;40582;53.100;6.686;2023-08-17T11:52:27;22.70;99.90
54684;DHT22;40582;53.100;6.686;2023-08-17T11:54:56;22.70;99.90
54684;DHT22;40582;53.100;6.686;2023-08-17T11:57:22;22.90;99.90
54684;DHT22;40582;53.100;6.686;2023-08-17T11:59:48;23.10;99.90
54684;DHT22;40582;53.100;6.686;2023-08-17T12:02:13;23.00;99.90
54684;DHT22;40582;53.100;6.686;2023-08-17T12:04:39;23.10;99.90
54684;DHT22;40582;53.100;6.686;2023-08-17T12:07:05;23.20;99.90
54684;DHT22;40582;53.100;6.686;2023-08-17T12:09:34;23.10;99.90
54684;DHT22;40582;53.100;6.686;2023-08-17T12:12:01;23.10;99.90
54684;DHT22;40582;53.100;6.686;2023-08-17T12:14:27;23.30;99.90
54684;DHT22;40582;53.100;6.686;2023-08-17T12:16:54;23.10;99.90
54684;DHT22;40582;53.100;6.686;2023-08-17T12:19:20;23.10;99.90
54684;DHT22;40582;53.100;6.686;2023-08-17T12:21:48;23.10;99.90
54684;DHT22;40582;53.100;6.686;2023-08-17T12:24:14;23.10;99.90
54684;DHT22;40582;53.100;6.686;2023-08-17T12:26:42;23.20;99.90
54684;DHT22;40582;53.100;6.686;2023-08-17T12:29:09;23.20;99.90
54684;DHT22;40582;53.100;6.686;2023-08-17T12:31:35;23.40;99.90
54684;DHT22;40582;53.100;6.686;2023-08-17T12:34:01;23.60;99.90
54684;DHT22;40582;53.100;6.686;2023-08-17T12:36:27;23.40;99.90
54684;DHT22;40582;53.100;6.686;2023-08-17T12:38:53;23.40;99.90
54684;DHT22;40582;53.100;6.686;2023-08-17T12:41:18;23.20;99.90
54684;DHT22;40582;53.100;6.686;2023-08-17T12:43:44;23.10;99.90
54684;DHT22;40582;53.100;6.686;2023-08-17T12:46:10;23.20;99.90
54684;DHT22;40582;53.100;6.686;2023-08-17T12:48:39;23.20;99.90
54684;DHT22;40582;53.100;6.686;2023-08-17T12:51:04;23.30;99.90
54684;DHT22;40582;53.100;6.686;2023-08-17T12:53:30;23.30;99.90
54684;DHT22;40582;53.100;6.686;2023-08-17T12:55:56;23.10;99.90
54684;DHT22;40582;53.100;6.686;2023-08-17T12:58:22;23.10;99.90
54684;DHT22;40582;53.100;6.686;2023-08-17T13:00:47;23.00;99.90
54684;DHT22;40582;53.100;6.686;2023-08-17T13:03:16;22.80;99.90
54684;DHT22;40582;53.100;6.686;2023-08-17T13:05:42;22.60;99.90
54684;DHT22;40582;53.100;6.686;2023-08-17T13:08:08;22.50;99.90
54684;DHT22;40582;53.100;6.686;2023-08-17T13:10:34;22.50;99.90
54684;DHT22;40582;53.100;6.686;2023-08-17T13:13:00;22.40;99.90
54684;DHT22;40582;53.100;6.686;2023-08-17T13:15:26;22.50;99.90
54684;DHT22;40582;53.100;6.686;2023-08-17T13:17:52;22.70;99.90
54684;DHT22;40582;53.100;6.686;2023-08-17T13:20:18;22.90;99.90
54684;DHT22;40582;53.100;6.686;2023-08-17T13:22:44;22.90;99.90
54684;DHT22;40582;53.100;6.686;2023-08-17T13:25:09;23.00;99.90
54684;DHT22;40582;53.100;6.686;2023-08-17T13:27:35;23.00;99.90
54684;DHT22;40582;53.100;6.686;2023-08-17T13:30:01;22.90;99.90
54684;DHT22;40582;53.100;6.686;2023-08-17T13:32:27;22.90;99.90
54684;DHT22;40582;53.100;6.686;2023-08-17T13:34:53;22.80;99.90
54684;DHT22;40582;53.100;6.686;2023-08-17T13:37:19;22.50;99.90
54684;DHT22;40582;53.100;6.686;2023-08-17T13:39:46;22.40;99.90
54684;DHT22;40582;53.100;6.686;2023-08-17T13:42:12;22.20;99.90
54684;DHT22;40582;53.100;6.686;2023-08-17T13:44:38;22.10;99.90
54684;DHT22;40582;53.100;6.686;2023-08-17T13:47:04;22.00;99.90
54684;DHT22;40582;53.100;6.686;2023-08-17T13:49:30;22.00;99.90
54684;DHT22;40582;53.100;6.686;2023-08-17T13:51:55;22.20;99.90
54684;DHT22;40582;53.100;6.686;2023-08-17T13:54:22;22.40;99.90
54684;DHT22;40582;53.100;6.686;2023-08-17T13:56:48;22.60;99.90
54684;DHT22;40582;53.100;6.686;2023-08-17T13:59:14;22.60;99.90
54684;DHT22;40582;53.100;6.686;2023-08-17T14:01:40;22.70;99.90
54684;DHT22;40582;53.100;6.686;2023-08-17T14:04:06;22.60;99.90
54684;DHT22;40582;53.100;6.686;2023-08-17T14:06:37;22.40;99.90
54684;DHT22;40582;53.100;6.686;2023-08-17T14:09:03;22.20;99.90
54684;DHT22;40582;53.100;6.686;2023-08-17T14:11:29;22.00;99.90
54684;DHT22;40582;53.100;6.686;2023-08-17T14:13:54;22.00;99.90
54684;DHT22;40582;53.100;6.686;2023-08-17T14:16:20;21.80;99.90
54684;DHT22;40582;53.100;6.686;2023-08-17T14:18:46;21.60;99.90
54684;DHT22;40582;53.100;6.686;2023-08-17T14:21:12;21.50;99.90
54684;DHT22;40582;53.100;6.686;2023-08-17T14:23:38;21.40;99.90
54684;DHT22;40582;53.100;6.686;2023-08-17T14:26:04;21.30;99.90
54684;DHT22;40582;53.100;6.686;2023-08-17T14:28:30;21.20;99.90
54684;DHT22;40582;53.100;6.686;2023-08-17T14:30:55;21.10;99.90
54684;DHT22;40582;53.100;6.686;2023-08-17T14:33:21;21.00;99.90
54684;DHT22;40582;53.100;6.686;2023-08-17T14:35:47;20.90;99.90
54684;DHT22;40582;53.100;6.686;2023-08-17T14:38:13;20.80;99.90
54684;DHT22;40582;53.100;6.686;2023-08-17T14:40:43;20.80;99.90
54684;DHT22;40582;53.100;6.686;2023-08-17T14:43:10;20.80;99.90
54684;DHT22;40582;53.100;6.686;2023-08-17T14:45:37;20.70;99.90
54684;DHT22;40582;53.100;6.686;2023-08-17T14:48:04;20.70;99.90
54684;DHT22;40582;53.100;6.686;2023-08-17T14:50:30;20.70;99.90
54684;DHT22;40582;53.100;6.686;2023-08-17T14:52:55;20.80;99.90
54684;DHT22;40582;53.100;6.686;2023-08-17T14:55:21;20.90;99.90
54684;DHT22;40582;53.100;6.686;2023-08-17T14:57:47;20.90;99.90
54684;DHT22;40582;53.100;6.686;2023-08-17T15:00:13;21.00;99.90
54684;DHT22;40582;53.100;6.686;2023-08-17T15:02:38;21.00;99.90
54684;DHT22;40582;53.100;6.686;2023-08-17T15:05:05;20.90;99.90
54684;DHT22;40582;53.100;6.686;2023-08-17T15:07:32;20.90;99.90
54684;DHT22;40582;53.100;6.686;2023-08-17T15:09:57;20.80;99.90
54684;DHT22;40582;53.100;6.686;2023-08-17T15:12:23;20.70;99.90
54684;DHT22;40582;53.100;6.686;2023-08-17T15:14:49;20.80;99.90
54684;DHT22;40582;53.100;6.686;2023-08-17T15:17:14;20.70;99.90
54684;DHT22;40582;53.100;6.686;2023-08-17T15:19:40;20.60;99.90
54684;DHT22;40582;53.100;6.686;2023-08-17T15:22:05;20.60;99.90
54684;DHT22;40582;53.100;6.686;2023-08-17T15:24:31;20.50;99.90
54684;DHT22;40582;53.100;6.686;2023-08-17T15:26:57;20.50;99.90
54684;DHT22;40582;53.100;6.686;2023-08-17T15:29:23;20.50;99.90
54684;DHT22;40582;53.100;6.686;2023-08-17T15:31:48;20.50;99.90
54684;DHT22;40582;53.100;6.686;2023-08-17T15:34:14;20.50;99.90
54684;DHT22;40582;53.100;6.686;2023-08-17T15:36:40;20.50;99.90